Time;durP1;ratioP1;P1;durP2;ratioP2;P2;SDS_P1;SDS_P2;PMS_P1;PMS_P2;Temp;Humidity;BMP_temperature;BMP_pressure;BME280_temperature;BME280_humidity;BME280_pressure;Samples;Min_cycle;Max_cycle;Signal;HPM_P1;HPM_P2
2022/03/27 00:00:16;;;;;;;18.98;12.00;;;6.80;54.70;;;;;;5080805;28;20237;-86
2022/03/27 00:02:44;;;;;;;22.85;12.57;;;6.80;54.60;;;;;;5088950;28;20207;-86
2022/03/27 00:05:12;;;;;;;16.52;12.02;;;6.70;54.50;;;;;;5073097;28;20246;-86
2022/03/27 00:07:39;;;;;;;20.65;12.68;;;6.60;54.90;;;;;;5070205;28;20721;-86
2022/03/27 00:10:09;;;;;;;26.42;10.90;;;6.70;54.70;;;;;;5078525;28;20245;-85
2022/03/27 00:12:36;;;;;;;20.25;12.10;;;6.70;54.70;;;;;;5071945;28;20256;-86
2022/03/27 00:15:04;;;;;;;20.98;11.93;;;6.70;54.50;;;;;;5080195;28;20277;-85
2022/03/27 00:17:32;;;;;;;20.88;12.77;;;6.70;54.60;;;;;;5076772;28;20680;-86
2022/03/27 00:20:01;;;;;;;22.60;12.77;;;6.60;55.10;;;;;;5072288;28;20206;-86
2022/03/27 00:22:28;;;;;;;19.95;11.50;;;6.30;59.10;;;;;;5089650;28;20206;-86
2022/03/27 00:24:57;;;;;;;16.00;11.35;;;6.40;55.80;;;;;;5048213;28;20196;-86
2022/03/27 00:27:25;;;;;;;19.25;12.02;;;6.40;55.80;;;;;;5071614;28;20203;-86
2022/03/27 00:29:52;;;;;;;21.90;13.27;;;6.30;56.20;;;;;;5080079;28;20198;-86
2022/03/27 00:32:20;;;;;;;19.13;11.25;;;6.40;56.40;;;;;;5084383;28;20203;-86
2022/03/27 00:34:48;;;;;;;20.05;11.07;;;6.30;56.50;;;;;;5070687;28;20670;-86
2022/03/27 00:37:15;;;;;;;16.30;10.93;;;6.30;56.50;;;;;;5070132;28;20233;-86
2022/03/27 00:39:42;;;;;;;16.33;11.50;;;6.30;56.20;;;;;;5077290;28;20281;-86
2022/03/27 00:42:09;;;;;;;20.20;10.45;;;6.30;56.30;;;;;;5080367;28;20203;-86
2022/03/27 00:44:38;;;;;;;21.67;11.23;;;6.30;56.40;;;;;;5080994;28;20301;-86
2022/03/27 00:47:06;;;;;;;17.55;11.57;;;6.30;56.60;;;;;;5087093;28;20210;-85
2022/03/27 00:49:33;;;;;;;18.10;11.15;;;6.30;56.40;;;;;;5079909;28;20642;-86
2022/03/27 00:51:59;;;;;;;16.00;10.57;;;6.30;56.70;;;;;;5067849;28;20736;-86
2022/03/27 00:54:27;;;;;;;21.25;12.25;;;6.20;57.10;;;;;;5071972;28;20282;-85
2022/03/27 00:56:54;;;;;;;16.13;9.52;;;6.20;57.20;;;;;;5070340;28;20660;-86
2022/03/27 00:59:21;;;;;;;26.73;11.15;;;6.10;57.40;;;;;;5075722;28;20629;-85
2022/03/27 01:01:49;;;;;;;24.67;10.73;;;6.20;57.40;;;;;;5075544;28;20354;-86
2022/03/27 01:04:16;;;;;;;17.77;9.45;;;6.20;57.10;;;;;;5073681;28;20208;-86
2022/03/27 01:06:45;;;;;;;15.93;10.70;;;6.30;56.80;;;;;;5068962;28;20199;-86
2022/03/27 01:09:37;;;;;;;17.20;10.10;;;6.20;56.90;;;;;;5080357;28;20234;-86
2022/03/27 01:12:14;;;;;;;21.52;11.00;;;6.20;56.80;;;;;;5078949;28;20221;-86
2022/03/27 01:14:43;;;;;;;22.90;11.40;;;6.10;57.40;;;;;;5071090;28;20203;-85
2022/03/27 01:17:16;;;;;;;16.00;11.00;;;6.00;57.30;;;;;;5067950;28;20203;-85
2022/03/27 01:19:45;;;;;;;18.60;11.40;;;6.00;57.50;;;;;;5085814;28;20626;-86
2022/03/27 01:22:16;;;;;;;16.38;10.23;;;6.00;57.50;;;;;;5079400;28;20223;-86
2022/03/27 01:24:44;;;;;;;13.90;9.07;;;5.90;57.60;;;;;;5072836;28;20206;-86
2022/03/27 01:27:12;;;;;;;16.80;10.13;;;5.90;57.40;;;;;;5081084;28;20203;-86
2022/03/27 01:29:39;;;;;;;17.63;10.55;;;5.80;57.60;;;;;;5069519;28;20219;-86
2022/03/27 01:32:10;;;;;;;17.88;10.00;;;5.80;57.50;;;;;;5070703;28;20291;-86
2022/03/27 01:34:37;;;;;;;15.60;10.15;;;5.70;58.10;;;;;;5075508;28;20564;-85
2022/03/27 01:37:08;;;;;;;15.18;10.13;;;5.70;58.60;;;;;;5077264;28;20199;-86
2022/03/27 01:39:37;;;;;;;19.23;10.48;;;5.60;58.60;;;;;;5080308;28;20272;-86
2022/03/27 01:42:07;;;;;;;17.55;10.07;;;5.50;59.80;;;;;;5056174;28;20207;-86
2022/03/27 01:44:34;;;;;;;18.10;10.02;;;5.60;59.00;;;;;;5080586;28;20202;-85
2022/03/27 01:47:01;;;;;;;18.80;10.75;;;5.70;58.40;;;;;;5086760;28;20205;-86
2022/03/27 01:49:29;;;;;;;16.73;9.73;;;5.60;58.90;;;;;;5074335;28;20712;-85
2022/03/27 01:51:55;;;;;;;17.40;9.88;;;5.70;59.00;;;;;;5074546;28;20557;-86
2022/03/27 01:54:22;;;;;;;13.80;9.45;;;5.60;59.00;;;;;;5084451;28;20585;-86
2022/03/27 01:56:51;;;;;;;21.80;9.70;;;5.60;59.00;;;;;;5068436;28;20199;-85
2022/03/27 01:59:20;;;;;;;17.38;9.90;;;5.50;58.80;;;;;;5067304;28;20529;-86
2022/03/27 02:01:48;;;;;;;20.35;10.35;;;3.00;57.90;;;;;;5081520;28;20293;-86
2022/03/27 02:04:15;;;;;;;25.30;11.07;;;5.40;59.70;;;;;;5076235;28;20199;-85
2022/03/27 02:06:43;;;;;;;19.85;11.88;;;5.40;59.20;;;;;;5047589;28;20207;-86
2022/03/27 02:09:12;;;;;;;20.05;10.05;;;5.50;58.80;;;;;;5076245;28;20223;-86
2022/03/27 02:11:39;;;;;;;18.02;11.88;;;5.50;59.00;;;;;;5080657;28;20220;-86
2022/03/27 02:14:08;;;;;;;17.98;10.30;;;5.40;59.30;;;;;;5086588;28;20220;-86
2022/03/27 02:16:35;;;;;;;11.35;8.93;;;5.40;58.70;;;;;;5074724;28;20215;-87
2022/03/27 02:19:02;;;;;;;17.10;11.50;;;5.50;58.70;;;;;;5079731;28;20203;-86
2022/03/27 02:21:29;;;;;;;21.17;11.02;;;5.50;58.40;;;;;;5076583;28;20203;-86
2022/03/27 02:23:56;;;;;;;21.60;11.15;;;5.50;58.70;;;;;;5077241;28;20211;-86
2022/03/27 02:26:23;;;;;;;21.33;10.23;;;5.30;58.90;;;;;;5082137;28;20348;-87
2022/03/27 02:28:50;;;;;;;15.50;10.55;;;5.40;59.20;;;;;;5057000;28;20247;-86
2022/03/27 02:31:19;;;;;;;16.23;10.70;;;5.40;59.20;;;;;;5067928;28;20253;-86
2022/03/27 02:33:46;;;;;;;15.88;11.32;;;5.30;59.20;;;;;;5068834;28;20214;-86
2022/03/27 02:36:13;;;;;;;18.65;10.52;;;5.30;59.70;;;;;;5081822;28;20202;-87
2022/03/27 02:38:40;;;;;;;16.80;10.60;;;5.20;59.10;;;;;;5069283;28;20562;-87
2022/03/27 02:41:07;;;;;;;20.92;11.75;;;5.30;59.20;;;;;;5076038;28;20607;-87
2022/03/27 02:43:38;;;;;;;24.38;12.82;;;5.30;59.60;;;;;;5079617;28;20200;-86
2022/03/27 02:46:05;;;;;;;19.90;12.32;;;5.20;59.90;;;;;;5067911;28;20211;-86
2022/03/27 02:48:34;;;;;;;21.35;11.25;;;5.10;59.60;;;;;;5067837;28;20211;-86
2022/03/27 02:51:00;;;;;;;16.85;10.73;;;5.10;60.70;;;;;;5071039;28;20203;-86
2022/03/27 02:53:27;;;;;;;15.48;10.88;;;5.10;61.10;;;;;;5075667;28;20627;-87
2022/03/27 02:55:55;;;;;;;18.55;11.75;;;5.10;60.50;;;;;;5087188;28;20293;-86
2022/03/27 02:58:22;;;;;;;14.02;10.10;;;5.10;61.50;;;;;;5077171;28;20206;-86
2022/03/27 03:00:49;;;;;;;22.58;11.15;;;5.00;60.70;;;;;;5086365;28;20738;-86
2022/03/27 03:03:16;;;;;;;22.48;11.25;;;4.90;60.20;;;;;;5081506;28;20199;-86
2022/03/27 03:05:44;;;;;;;16.55;11.35;;;5.00;60.50;;;;;;5078043;28;20287;-86
2022/03/27 03:08:12;;;;;;;14.73;10.55;;;4.90;60.30;;;;;;5085339;28;20199;-86
2022/03/27 03:10:40;;;;;;;17.15;11.43;;;4.90;61.30;;;;;;5087451;28;20207;-86
2022/03/27 03:13:08;;;;;;;14.02;9.50;;;4.80;61.70;;;;;;5076368;28;20587;-86
2022/03/27 03:15:36;;;;;;;21.05;11.25;;;4.70;62.20;;;;;;5087682;28;20230;-87
2022/03/27 03:18:04;;;;;;;27.95;12.93;;;4.70;62.60;;;;;;5071296;28;20253;-86
2022/03/27 03:20:32;;;;;;;19.08;11.77;;;4.60;62.80;;;;;;5073730;28;20241;-86
2022/03/27 03:23:01;;;;;;;19.17;11.02;;;4.60;63.40;;;;;;5076612;28;20230;-86
2022/03/27 03:25:29;;;;;;;23.02;11.75;;;4.70;62.40;;;;;;5070135;28;20260;-86
2022/03/27 03:27:56;;;;;;;21.50;11.02;;;4.70;62.70;;;;;;5080546;28;20213;-86
2022/03/27 03:30:23;;;;;;;20.50;11.30;;;4.80;62.40;;;;;;5077545;28;20567;-86
2022/03/27 03:32:50;;;;;;;17.88;11.27;;;4.80;61.70;;;;;;5090404;28;20290;-87
2022/03/27 03:35:17;;;;;;;21.17;11.20;;;4.80;61.10;;;;;;5070548;28;20564;-86
2022/03/27 03:37:44;;;;;;;17.63;12.05;;;4.70;61.20;;;;;;5082070;28;20202;-86
2022/03/27 03:40:14;;;;;;;17.23;11.02;;;4.70;61.80;;;;;;5075052;28;20286;-86
2022/03/27 03:42:41;;;;;;;18.65;12.10;;;4.70;61.10;;;;;;5083682;28;20253;-86
2022/03/27 03:45:09;;;;;;;19.13;12.07;;;4.70;61.50;;;;;;5070299;28;20848;-85
2022/03/27 03:47:36;;;;;;;16.63;10.48;;;4.70;61.10;;;;;;5077347;28;20201;-86
2022/03/27 03:50:03;;;;;;;21.20;12.85;;;4.70;60.90;;;;;;5076877;28;20227;-86
2022/03/27 03:52:30;;;;;;;23.52;10.85;;;4.70;60.50;;;;;;5088534;28;20210;-86
2022/03/27 03:54:57;;;;;;;18.58;12.20;;;4.70;60.50;;;;;;5079527;28;20419;-86
2022/03/27 03:57:25;;;;;;;15.20;11.00;;;4.60;60.50;;;;;;5067167;28;20694;-86
2022/03/27 03:59:52;;;;;;;16.25;10.80;;;4.70;60.50;;;;;;5071449;28;20286;-86
2022/03/27 04:02:19;;;;;;;26.92;11.68;;;4.70;60.20;;;;;;5077380;28;20285;-86
2022/03/27 04:04:47;;;;;;;19.50;10.93;;;4.70;60.30;;;;;;5077030;28;20211;-86
2022/03/27 04:07:14;;;;;;;19.23;12.65;;;4.70;60.50;;;;;;5077111;28;20207;-86
2022/03/27 04:09:41;;;;;;;22.30;12.60;;;4.70;61.10;;;;;;5088706;28;20649;-86
2022/03/27 04:12:09;;;;;;;20.88;12.70;;;5.70;63.40;;;;;;5072632;28;20227;-87
2022/03/27 04:14:39;;;;;;;19.95;11.18;;;4.70;61.90;;;;;;5070200;28;20286;-87
2022/03/27 04:17:06;;;;;;;19.95;10.93;;;4.70;62.30;;;;;;5072739;28;20217;-88
2022/03/27 04:19:33;;;;;;;22.30;13.50;;;4.70;62.60;;;;;;5077115;28;20705;-87
2022/03/27 04:22:00;;;;;;;22.63;12.90;;;4.70;63.40;;;;;;5070269;28;20294;-87
2022/03/27 04:24:30;;;;;;;23.45;11.80;;;4.60;63.60;;;;;;5069581;28;20196;-88
2022/03/27 04:26:57;;;;;;;19.73;12.38;;;4.60;63.80;;;;;;5069640;28;20257;-88
2022/03/27 04:29:24;;;;;;;15.77;11.60;;;4.50;64.10;;;;;;5074587;28;20215;-88
2022/03/27 04:31:52;;;;;;;16.73;11.88;;;4.60;63.20;;;;;;5068634;28;20265;-88
2022/03/27 04:34:19;;;;;;;21.95;12.95;;;4.60;62.70;;;;;;5070193;28;20291;-88
2022/03/27 04:36:46;;;;;;;16.73;10.98;;;4.50;62.80;;;;;;5071101;28;20231;-88
2022/03/27 04:39:14;;;;;;;17.08;10.90;;;4.60;62.40;;;;;;5071383;28;20221;-87
2022/03/27 04:41:40;;;;;;;18.65;11.77;;;4.50;62.50;;;;;;5070462;28;20194;-88
2022/03/27 04:44:08;;;;;;;18.67;11.60;;;4.40;62.80;;;;;;5080097;28;20248;-87
2022/03/27 04:46:35;;;;;;;23.75;12.07;;;4.30;62.00;;;;;;5089539;28;20225;-88
2022/03/27 04:49:04;;;;;;;19.92;10.50;;;4.40;63.90;;;;;;5085036;28;20218;-88
2022/03/27 04:51:31;;;;;;;16.98;10.18;;;4.40;63.20;;;;;;5083571;28;20226;-88
2022/03/27 04:53:58;;;;;;;21.45;10.30;;;4.30;63.00;;;;;;5080766;28;20252;-88
2022/03/27 04:56:25;;;;;;;16.25;11.90;;;4.30;72.30;;;;;;5073685;28;20279;-88
2022/03/27 04:58:52;;;;;;;19.40;11.65;;;4.30;63.50;;;;;;5080258;28;20231;-87
2022/03/27 05:01:18;;;;;;;22.42;9.60;;;4.30;63.40;;;;;;5083466;28;20657;-88
2022/03/27 05:03:45;;;;;;;25.42;10.73;;;4.30;63.10;;;;;;5085268;28;20276;-88
2022/03/27 05:06:15;;;;;;;18.65;11.68;;;4.20;63.00;;;;;;5055415;28;20200;-88
2022/03/27 05:08:44;;;;;;;18.67;11.98;;;3.90;71.00;;;;;;5090037;28;20546;-88
2022/03/27 05:11:11;;;;;;;20.80;10.75;;;4.20;62.90;;;;;;5069609;28;20223;-88
2022/03/27 05:13:37;;;;;;;17.15;11.35;;;4.20;64.60;;;;;;5076482;28;20207;-87
2022/03/27 05:16:05;;;;;;;16.75;10.85;;;4.00;64.70;;;;;;5076060;28;20665;-88
2022/03/27 05:18:32;;;;;;;15.82;11.10;;;4.20;73.10;;;;;;5077299;28;20277;-88
2022/03/27 05:20:59;;;;;;;14.73;11.65;;;4.10;64.90;;;;;;5076923;28;20282;-87
2022/03/27 05:23:28;;;;;;;16.85;10.65;;;4.10;64.90;;;;;;5085188;28;20297;-88
2022/03/27 05:25:54;;;;;;;24.17;11.18;;;4.10;64.10;;;;;;5072627;28;20203;-88
2022/03/27 05:28:21;;;;;;;17.95;10.38;;;4.20;72.20;;;;;;5080522;28;20198;-87
2022/03/27 05:30:48;;;;;;;14.25;10.23;;;4.10;63.90;;;;;;5069822;28;20242;-87
2022/03/27 05:33:15;;;;;;;15.40;11.02;;;4.10;63.80;;;;;;5078835;28;20235;-88
2022/03/27 05:35:42;;;;;;;16.35;10.80;;;4.20;65.00;;;;;;5067889;28;20204;-88
2022/03/27 05:38:09;;;;;;;24.92;13.68;;;4.10;66.00;;;;;;5059044;28;20222;-88
2022/03/27 05:40:38;;;;;;;22.80;11.80;;;4.20;66.00;;;;;;5071342;28;20724;-88
2022/03/27 05:43:05;;;;;;;17.23;12.40;;;4.20;66.40;;;;;;5070200;28;20208;-88
2022/03/27 05:45:32;;;;;;;18.52;11.90;;;4.20;67.30;;;;;;5081411;28;20210;-88
2022/03/27 05:48:00;;;;;;;17.08;10.70;;;4.20;67.30;;;;;;5075596;28;20286;-88
2022/03/27 05:50:27;;;;;;;22.35;13.15;;;4.70;68.50;;;;;;5066588;28;20307;-88
2022/03/27 05:52:57;;;;;;;21.63;11.57;;;4.30;67.40;;;;;;5068271;28;20203;-88
2022/03/27 05:55:25;;;;;;;17.98;10.95;;;4.40;66.40;;;;;;5071360;28;20246;-88
2022/03/27 05:57:53;;;;;;;16.77;10.50;;;4.30;66.30;;;;;;5069244;28;20269;-88
2022/03/27 06:00:24;;;;;;;17.33;11.68;;;5.60;68.90;;;;;;5066956;28;20200;-86
2022/03/27 06:02:51;;;;;;;22.95;11.48;;;4.30;66.20;;;;;;5065168;28;20206;-88
2022/03/27 06:05:22;;;;;;;22.40;12.07;;;4.50;66.20;;;;;;5064759;28;20203;-86
2022/03/27 06:07:51;;;;;;;17.13;9.98;;;4.40;66.20;;;;;;5066607;28;20207;-87
2022/03/27 06:10:21;;;;;;;22.75;11.52;;;4.50;65.70;;;;;;5068601;28;20296;-88
2022/03/27 06:12:48;;;;;;;18.80;12.05;;;4.50;65.50;;;;;;5069698;28;20199;-89
2022/03/27 06:15:23;;;;;;;22.60;12.10;;;4.60;74.70;;;;;;5067818;28;20253;-88
2022/03/27 06:18:30;;;;;;;22.73;12.55;;;4.60;65.70;;;;;;5072434;28;20313;-90
2022/03/27 06:24:12;;;;;;;16.63;10.95;;;4.80;65.40;;;;;;5071386;28;20290;-91
2022/03/27 06:26:43;;;;;;;23.35;12.73;;;5.10;65.80;;;;;;5067750;28;20199;-89
2022/03/27 06:29:10;;;;;;;19.80;12.10;;;5.00;65.50;;;;;;5069888;28;20676;-89
2022/03/27 06:31:39;;;;;;;22.77;13.23;;;5.20;67.00;;;;;;5070664;28;20219;-89
2022/03/27 06:34:09;;;;;;;20.95;13.43;;;5.50;65.50;;;;;;5068443;28;20207;-91
2022/03/27 06:36:36;;;;;;;21.35;12.73;;;5.40;65.50;;;;;;5063070;28;20199;-87
2022/03/27 06:39:06;;;;;;;19.77;11.93;;;5.50;64.20;;;;;;5068788;28;20717;-86
2022/03/27 06:41:33;;;;;;;24.33;14.25;;;5.60;63.60;;;;;;5074253;28;20191;-86
2022/03/27 06:44:03;;;;;;;25.13;13.00;;;5.70;63.70;;;;;;5066965;28;20209;-85
2022/03/27 06:46:30;;;;;;;16.67;12.57;;;5.80;64.50;;;;;;5072388;28;20290;-87
2022/03/27 06:48:58;;;;;;;26.40;13.27;;;6.10;64.10;;;;;;5072067;28;20207;-85
2022/03/27 06:51:25;;;;;;;17.55;12.13;;;6.00;64.50;;;;;;5075981;28;20306;-85
2022/03/27 06:53:52;;;;;;;23.77;13.10;;;6.20;63.00;;;;;;5071795;28;20230;-85
2022/03/27 06:56:19;;;;;;;19.15;12.65;;;6.30;68.70;;;;;;5075094;28;20203;-85
2022/03/27 06:58:46;;;;;;;17.80;12.52;;;6.50;62.10;;;;;;5090574;28;20202;-86
2022/03/27 07:03:58;;;;;;;23.60;12.80;;;6.80;62.40;;;;;;5081266;28;20290;-85
2022/03/27 07:06:25;;;;;;;22.85;12.65;;;6.90;61.00;;;;;;5078363;28;20286;-84
2022/03/27 07:08:52;;;;;;;19.13;11.70;;;7.10;60.80;;;;;;5098133;28;20234;-85
2022/03/27 07:11:19;;;;;;;17.67;10.95;;;7.30;62.00;;;;;;5093241;28;20214;-85
2022/03/27 07:13:46;;;;;;;20.35;12.20;;;7.40;61.70;;;;;;5084555;28;20207;-85
2022/03/27 07:16:14;;;;;;;16.92;10.52;;;7.70;60.80;;;;;;5088270;28;20203;-86
2022/03/27 07:18:40;;;;;;;14.85;10.68;;;8.00;59.90;;;;;;5076770;28;21009;-85
2022/03/27 07:21:09;;;;;;;16.45;9.85;;;8.20;59.80;;;;;;5089723;28;20222;-85
2022/03/27 07:23:36;;;;;;;20.48;11.45;;;8.30;59.30;;;;;;5090556;28;20864;-85
2022/03/27 07:26:06;;;;;;;16.27;9.90;;;8.80;63.50;;;;;;5065502;28;20203;-85
2022/03/27 07:28:32;;;;;;;17.65;10.82;;;8.80;58.60;;;;;;5079411;28;20287;-85
2022/03/27 07:31:02;;;;;;;17.08;10.25;;;8.90;58.40;;;;;;5084999;28;20297;-84
2022/03/27 07:33:29;;;;;;;16.17;10.43;;;9.00;59.50;;;;;;5081302;28;20254;-85
2022/03/27 07:35:57;;;;;;;15.32;10.15;;;9.10;58.60;;;;;;5082127;28;20615;-86
2022/03/27 07:38:27;;;;;;;19.30;9.88;;;9.40;58.60;;;;;;5096948;28;20810;-84
2022/03/27 07:40:54;;;;;;;14.80;10.88;;;9.50;58.30;;;;;;5082393;28;20284;-86
2022/03/27 07:43:21;;;;;;;18.30;10.50;;;9.60;57.50;;;;;;5088118;28;20707;-84
2022/03/27 07:45:57;;;;;;;16.02;9.82;;;9.80;57.00;;;;;;5074885;28;20673;-85
2022/03/27 07:48:24;;;;;;;14.05;10.60;;;9.90;56.90;;;;;;5075700;28;20218;-85
2022/03/27 07:50:54;;;;;;;18.55;10.15;;;10.50;55.40;;;;;;5070909;28;20218;-84
2022/03/27 07:53:22;;;;;;;12.57;9.85;;;10.40;55.60;;;;;;5075706;28;20203;-85
2022/03/27 07:55:50;;;;;;;16.35;10.25;;;10.50;55.70;;;;;;5072991;28;20207;-85
2022/03/27 07:58:17;;;;;;;14.97;10.20;;;10.70;55.40;;;;;;5082838;28;20293;-84
2022/03/27 08:00:44;;;;;;;17.87;10.50;;;10.30;57.20;;;;;;5079310;28;20605;-84
2022/03/27 08:03:12;;;;;;;18.30;10.50;;;10.90;54.30;;;;;;5077048;28;20686;-84
2022/03/27 08:05:39;;;;;;;17.20;10.50;;;11.10;54.10;;;;;;5071564;28;20628;-85
2022/03/27 08:08:06;;;;;;;14.70;10.67;;;11.20;53.90;;;;;;5074941;28;20605;-87
2022/03/27 08:10:33;;;;;;;19.27;12.40;;;11.30;54.30;;;;;;5079689;28;20657;-83
2022/03/27 08:13:01;;;;;;;20.70;12.60;;;11.30;54.20;;;;;;5085232;28;20630;-84
2022/03/27 08:15:28;;;;;;;20.27;13.50;;;11.00;56.20;;;;;;5073159;28;20656;-84
2022/03/27 08:17:55;;;;;;;18.90;12.50;;;11.10;53.70;;;;;;5073347;28;20678;-85
2022/03/27 08:20:22;;;;;;;13.03;10.20;;;11.30;54.10;;;;;;5084329;28;21234;-84
2022/03/27 08:22:49;;;;;;;33.80;10.87;;;11.50;54.80;;;;;;5090675;28;20628;-85
2022/03/27 08:26:55;;;;;;;18.33;11.20;;;11.80;53.60;;;;;;5073824;28;20687;-85
2022/03/27 08:28:07;;;;;;;16.43;9.93;;;12.00;51.50;;;;;;5069418;28;21283;-84
2022/03/27 08:30:34;;;;;;;16.63;10.57;;;12.50;52.70;;;;;;5080837;28;20747;-85
2022/03/27 08:33:01;;;;;;;28.20;10.57;;;12.50;51.90;;;;;;5074348;28;20660;-85
2022/03/27 08:35:28;;;;;;;16.60;10.20;;;12.70;51.70;;;;;;5069887;28;20617;-84
2022/03/27 08:37:56;;;;;;;17.83;11.53;;;12.90;51.60;;;;;;5069338;28;20625;-84
2022/03/27 08:40:24;;;;;;;15.23;11.90;;;13.00;50.90;;;;;;5070404;28;20757;-87
2022/03/27 08:42:51;;;;;;;17.97;13.10;;;13.00;50.80;;;;;;5068024;28;20975;-88
2022/03/27 08:45:45;;;;;;;25.13;13.17;;;13.00;53.80;;;;;;5069713;28;20617;-89
2022/03/27 08:48:12;;;;;;;23.00;13.23;;;13.00;51.30;;;;;;5063373;28;20676;-88
2022/03/27 08:50:44;;;;;;;24.13;13.77;;;12.80;51.50;;;;;;5072540;28;20719;-87
2022/03/27 08:53:12;;;;;;;18.63;10.83;;;12.60;55.60;;;;;;5066803;28;20686;-87
2022/03/27 08:55:43;;;;;;;21.90;12.90;;;12.50;51.90;;;;;;5072055;28;20675;-87
2022/03/27 08:58:12;;;;;;;18.40;12.30;;;12.50;51.30;;;;;;5073010;28;20625;-88
2022/03/27 09:00:40;;;;;;;19.67;12.00;;;12.40;51.40;;;;;;5071593;28;20629;-87
2022/03/27 09:03:11;;;;;;;22.10;12.67;;;12.60;51.80;;;;;;5068086;28;21198;-87
2022/03/27 09:05:39;;;;;;;17.30;12.03;;;12.60;52.00;;;;;;5062092;28;20633;-87
2022/03/27 09:08:09;;;;;;;17.13;12.00;;;12.60;51.00;;;;;;5063751;28;20617;-87
2022/03/27 09:10:37;;;;;;;20.93;13.47;;;12.60;51.00;;;;;;5068628;28;20645;-87
2022/03/27 09:13:05;;;;;;;14.77;11.07;;;12.70;50.90;;;;;;5067987;28;20728;-86
2022/03/27 09:15:32;;;;;;;19.90;12.90;;;12.80;51.20;;;;;;5065919;28;20713;-88
2022/03/27 09:18:02;;;;;;;18.00;13.00;;;12.90;51.30;;;;;;5082918;28;20624;-87
2022/03/27 09:20:37;;;;;;;15.07;11.97;;;13.30;51.50;;;;;;5084563;28;20618;-87
2022/03/27 09:23:22;;;;;;;22.47;13.63;;;13.70;50.20;;;;;;5070652;28;21214;-87
2022/03/27 09:25:52;;;;;;;17.03;10.90;;;13.90;50.50;;;;;;5059770;28;20728;-88
2022/03/27 09:28:25;;;;;;;18.30;11.75;;;14.10;48.60;;;;;;5065862;28;20743;-88
2022/03/27 09:30:52;;;;;;;18.53;13.20;;;14.20;49.10;;;;;;5062943;28;20333;-88
2022/03/27 09:33:31;;;;;;;21.97;10.73;;;15.20;50.30;;;;;;5065912;28;20640;-87
2022/03/27 09:36:07;;;;;;;14.27;10.20;;;14.60;49.70;;;;;;5060945;28;20638;-87
2022/03/27 09:38:34;;;;;;;16.80;10.53;;;14.50;49.50;;;;;;5072510;28;20621;-88
2022/03/27 09:41:03;;;;;;;18.23;13.47;;;14.70;47.10;;;;;;5065968;28;21319;-87
2022/03/27 09:43:30;;;;;;;19.87;13.13;;;14.80;48.60;;;;;;5068441;28;20626;-88
2022/03/27 09:45:59;;;;;;;22.63;13.03;;;14.70;49.00;;;;;;5058601;28;20732;-87
2022/03/27 09:48:31;;;;;;;22.20;13.50;;;14.60;49.30;;;;;;5069328;28;20707;-87
2022/03/27 09:51:01;;;;;;;16.13;12.30;;;14.80;52.10;;;;;;5082136;28;21228;-86
2022/03/27 09:53:31;;;;;;;15.67;10.73;;;14.70;49.50;;;;;;5085195;28;21109;-87
2022/03/27 09:56:15;;;;;;;16.10;10.23;;;15.10;47.70;;;;;;5075053;28;21236;-87
2022/03/27 09:58:43;;;;;;;14.90;10.40;;;15.30;46.70;;;;;;5068767;28;20620;-86
2022/03/27 10:01:13;;;;;;;17.47;10.00;;;15.30;46.80;;;;;;5065278;28;20629;-86
2022/03/27 10:03:59;;;;;;;27.77;11.40;;;15.40;45.80;;;;;;5074019;28;20630;-87
2022/03/27 10:06:34;;;;;;;13.30;10.33;;;15.70;47.90;;;;;;5067935;28;20615;-89
2022/03/27 10:09:03;;;;;;;15.20;9.73;;;15.50;45.30;;;;;;5068503;28;20623;-86
2022/03/27 10:11:31;;;;;;;22.50;11.50;;;15.50;45.60;;;;;;5070444;28;21019;-89
2022/03/27 10:13:59;;;;;;;18.00;11.00;;;15.70;46.10;;;;;;5068325;28;20644;-88
2022/03/27 10:16:28;;;;;;;18.23;10.53;;;15.90;46.20;;;;;;5062660;28;20624;-87
2022/03/27 10:18:56;;;;;;;16.27;10.23;;;16.00;45.70;;;;;;5068325;28;20628;-86
2022/03/27 10:21:26;;;;;;;16.83;11.10;;;16.10;46.00;;;;;;5067985;28;20623;-87
2022/03/27 10:24:00;;;;;;;15.50;10.83;;;16.10;45.20;;;;;;5063639;28;21130;-87
2022/03/27 10:26:28;;;;;;;13.70;9.40;;;16.00;44.70;;;;;;5065732;28;20713;-88
2022/03/27 10:28:56;;;;;;;17.70;10.73;;;15.90;45.00;;;;;;5065917;28;21262;-88
2022/03/27 10:31:23;;;;;;;16.47;10.90;;;16.00;45.50;;;;;;5067713;28;20734;-86
2022/03/27 10:33:53;;;;;;;14.80;10.63;;;16.20;45.00;;;;;;5066041;28;20652;-87
2022/03/27 10:36:28;;;;;;;21.73;11.23;;;16.30;48.00;;;;;;5063403;28;20622;-87
2022/03/27 10:39:05;;;;;;;22.00;10.70;;;16.10;45.30;;;;;;5067658;28;20752;-87
2022/03/27 10:41:43;;;;;;;16.17;10.00;;;16.30;45.10;;;;;;5063813;28;20677;-87
2022/03/27 10:44:18;;;;;;;17.87;11.87;;;16.40;45.10;;;;;;5063147;28;20666;-87
2022/03/27 10:47:05;;;;;;;17.40;11.50;;;16.40;46.40;;;;;;5064381;28;20992;-88
2022/03/27 10:49:36;;;;;;;18.80;12.93;;;16.30;46.70;;;;;;5067085;28;20627;-86
2022/03/27 10:52:06;;;;;;;14.60;11.00;;;16.20;47.10;;;;;;5069760;28;20655;-86
2022/03/27 10:54:53;;;;;;;19.83;11.30;;;16.40;46.90;;;;;;5070085;28;20999;-87
2022/03/27 10:57:30;;;;;;;15.70;11.40;;;16.50;49.00;;;;;;5061518;28;20730;-86
2022/03/27 10:59:57;;;;;;;15.63;10.20;;;16.40;46.80;;;;;;5070263;28;20609;-87
2022/03/27 11:02:45;;;;;;;21.00;11.60;;;16.70;46.00;;;;;;5062508;28;20615;-87
2022/03/27 11:05:54;;;;;;;16.40;12.50;;;16.70;44.70;;;;;;5066289;28;20686;-88
2022/03/27 11:08:48;;;;;;;19.00;12.23;;;16.80;44.60;;;;;;5000834;28;20669;-86
2022/03/27 11:12:03;;;;;;;15.07;10.30;;;16.70;44.80;;;;;;5071787;28;20685;-84
2022/03/27 11:15:00;;;;;;;14.30;10.30;;;16.70;45.20;;;;;;5067923;28;20635;-85
2022/03/27 11:17:32;;;;;;;17.90;11.60;;;16.80;45.30;;;;;;5078364;28;20632;-85
2022/03/27 11:20:00;;;;;;;21.27;11.47;;;16.50;44.60;;;;;;5071878;28;20624;-85
2022/03/27 11:22:44;;;;;;;15.83;11.37;;;16.60;45.30;;;;;;5077816;28;20659;-85
2022/03/27 11:25:45;;;;;;;18.60;11.70;;;16.70;44.00;;;;;;5067201;28;20628;-85
2022/03/27 11:28:13;;;;;;;17.07;11.40;;;16.80;44.30;;;;;;5068906;28;20630;-85
2022/03/27 11:31:10;;;;;;;13.47;10.30;;;16.80;45.00;;;;;;5089738;28;20729;-85
2022/03/27 11:33:37;;;;;;;17.97;12.37;;;16.90;45.40;;;;;;5067147;28;20689;-85
2022/03/27 11:36:24;;;;;;;15.90;10.83;;;16.80;44.90;;;;;;5077609;28;20700;-85
2022/03/27 11:39:02;;;;;;;15.20;10.80;;;17.00;44.80;;;;;;5079419;28;21001;-86
2022/03/27 11:41:38;;;;;;;16.40;10.47;;;17.10;43.60;;;;;;5070672;28;20640;-85
2022/03/27 11:45:06;;;;;;;18.00;11.43;;;17.00;42.40;;;;;;5076193;28;20666;-85
2022/03/27 11:47:20;;;;;;;21.03;10.40;;;17.00;43.30;;;;;;5082300;28;20653;-85
2022/03/27 11:49:49;;;;;;;23.07;11.50;;;17.10;44.70;;;;;;5065599;28;20667;-85
2022/03/27 11:52:18;;;;;;;17.83;11.27;;;17.00;44.50;;;;;;5068916;28;20728;-86
2022/03/27 11:54:46;;;;;;;26.50;11.93;;;17.20;44.90;;;;;;5078749;28;20677;-85
2022/03/27 11:57:16;;;;;;;14.30;10.33;;;17.20;43.80;;;;;;5074775;28;20642;-85
2022/03/27 11:59:48;;;;;;;16.83;10.87;;;17.20;44.30;;;;;;5068297;28;20669;-85
2022/03/27 12:02:16;;;;;;;14.10;11.20;;;17.30;43.40;;;;;;5070667;28;21054;-85
2022/03/27 12:04:53;;;;;;;16.83;11.13;;;17.20;43.00;;;;;;5073986;28;20620;-85
2022/03/27 12:07:22;;;;;;;14.23;10.70;;;17.20;42.90;;;;;;5070308;28;20684;-84
2022/03/27 12:09:57;;;;;;;18.80;11.73;;;17.20;43.90;;;;;;5080680;28;20624;-85
2022/03/27 12:12:27;;;;;;;15.77;10.17;;;17.30;44.20;;;;;;5082550;28;20659;-85
2022/03/27 12:14:55;;;;;;;18.90;12.17;;;17.30;43.40;;;;;;5088929;28;20632;-85
2022/03/27 12:17:23;;;;;;;14.70;10.40;;;17.40;44.60;;;;;;5087111;28;20639;-85
2022/03/27 12:20:00;;;;;;;15.57;11.57;;;17.40;43.10;;;;;;5076614;28;21206;-85
2022/03/27 12:22:38;;;;;;;15.60;10.90;;;17.60;42.60;;;;;;5080884;28;20720;-85
2022/03/27 12:25:07;;;;;;;16.63;10.03;;;17.60;42.80;;;;;;5079906;28;20618;-85
2022/03/27 12:30:31;;;;;;;12.80;8.67;;;17.60;42.20;;;;;;5087268;28;21437;-85
2022/03/27 12:33:00;;;;;;;14.53;10.13;;;17.60;42.20;;;;;;5074488;28;20663;-85
2022/03/27 12:35:27;;;;;;;13.40;9.37;;;17.80;41.90;;;;;;5071230;28;20628;-86
2022/03/27 12:37:55;;;;;;;13.73;9.53;;;17.80;40.30;;;;;;5070221;28;20625;-85
2022/03/27 12:40:22;;;;;;;15.70;10.10;;;17.70;40.00;;;;;;5080656;28;20988;-86
2022/03/27 12:42:52;;;;;;;13.30;9.40;;;17.80;40.80;;;;;;5070420;28;20729;-86
2022/03/27 12:45:29;;;;;;;13.47;8.93;;;17.80;40.20;;;;;;5080059;28;20638;-85
2022/03/27 12:47:58;;;;;;;9.97;8.23;;;17.80;39.50;;;;;;5088637;28;20730;-86
2022/03/27 12:50:34;;;;;;;14.83;9.40;;;17.90;39.30;;;;;;5071050;28;21186;-85
2022/03/27 12:53:03;;;;;;;12.57;9.07;;;18.10;37.90;;;;;;5077554;28;20750;-86
2022/03/27 12:55:45;;;;;;;11.77;7.90;;;18.10;38.00;;;;;;5075592;28;20653;-87